createdAt,value
2019-02-15T00:02:32.964Z,3.70
2019-02-15T00:05:22.515Z,3.80
2019-02-15T00:08:11.479Z,3.70
2019-02-15T00:11:00.438Z,3.70
2019-02-15T00:13:49.274Z,3.70
2019-02-15T00:16:38.671Z,3.70
2019-02-15T00:19:29.847Z,3.80
2019-02-15T00:22:19.259Z,3.80
2019-02-15T00:25:08.628Z,3.70
2019-02-15T00:27:57.888Z,3.70
2019-02-15T00:30:47.219Z,3.70
2019-02-15T00:33:36.147Z,3.60
2019-02-15T00:36:25.505Z,3.50
2019-02-15T00:39:14.959Z,3.30
2019-02-15T00:42:04.364Z,3.30
2019-02-15T00:44:53.138Z,3.30
2019-02-15T00:47:55.374Z,3.30
2019-02-15T00:50:48.389Z,3.20
2019-02-15T00:53:54.580Z,3.20
2019-02-15T00:56:53.938Z,3.20
2019-02-15T00:59:44.378Z,3.10
2019-02-15T01:02:38.288Z,3.10
2019-02-15T01:05:31.252Z,3.10
2019-02-15T01:08:22.069Z,3.10
2019-02-15T01:11:13.123Z,3.10
2019-02-15T01:14:01.785Z,3.00
2019-02-15T01:16:51.183Z,3.00
2019-02-15T01:19:40.060Z,3.00
2019-02-15T01:22:29.623Z,3.00
2019-02-15T01:25:18.633Z,3.00
2019-02-15T01:28:12.488Z,3.00
2019-02-15T01:31:11.963Z,3.00
2019-02-15T01:34:11.877Z,2.90
2019-02-15T01:37:08.098Z,2.90
2019-02-15T01:39:59.142Z,2.90
2019-02-15T01:42:49.460Z,2.90
2019-02-15T01:45:39.906Z,2.90
2019-02-15T01:48:29.299Z,2.90
2019-02-15T01:51:19.049Z,2.90
2019-02-15T01:54:08.485Z,2.90
2019-02-15T01:56:57.611Z,2.90
2019-02-15T01:59:46.949Z,2.90
2019-02-15T02:02:36.476Z,2.90
2019-02-15T02:05:25.725Z,2.90
2019-02-15T02:08:16.466Z,2.90
2019-02-15T02:11:05.250Z,2.90
2019-02-15T02:13:54.165Z,3.00
2019-02-15T02:16:43.250Z,2.90
2019-02-15T02:19:32.188Z,2.90
2019-02-15T02:22:21.967Z,2.80
2019-02-15T02:25:11.167Z,2.80
2019-02-15T02:28:00.399Z,2.80
2019-02-15T02:30:48.955Z,2.80
2019-02-15T02:33:38.634Z,2.80
2019-02-15T02:36:49.709Z,2.70
2019-02-15T02:39:38.574Z,2.70
2019-02-15T02:42:27.225Z,2.70
2019-02-15T02:45:15.794Z,2.70
2019-02-15T02:48:04.953Z,2.70
2019-02-15T02:50:53.925Z,2.70
2019-02-15T02:53:43.584Z,2.70
2019-02-15T02:56:33.065Z,2.70
2019-02-15T02:59:22.075Z,2.80
2019-02-15T03:02:11.496Z,2.80
2019-02-15T03:04:59.947Z,2.60
2019-02-15T03:07:49.526Z,2.60
2019-02-15T03:10:38.662Z,2.70
2019-02-15T03:13:28.064Z,2.70
2019-02-15T03:16:16.678Z,2.70
2019-02-15T03:19:06.498Z,2.60
2019-02-15T03:21:55.874Z,2.50
2019-02-15T03:24:44.896Z,2.50
2019-02-15T03:27:34.201Z,2.50
2019-02-15T03:30:23.668Z,2.50
2019-02-15T03:33:13.566Z,2.50
2019-02-15T03:36:04.594Z,2.50
2019-02-15T03:38:56.097Z,2.40
2019-02-15T03:41:45.877Z,2.40
2019-02-15T03:44:35.403Z,2.40
2019-02-15T03:47:25.745Z,2.50
2019-02-15T03:50:14.221Z,2.40
2019-02-15T03:53:02.957Z,2.40
2019-02-15T03:55:52.438Z,2.40
2019-02-15T03:58:42.016Z,2.30
2019-02-15T04:01:31.253Z,2.40
2019-02-15T04:04:20.550Z,2.40
2019-02-15T04:07:09.825Z,2.40
2019-02-15T04:09:59.087Z,2.40
2019-02-15T04:12:48.529Z,2.30
2019-02-15T04:15:39.132Z,2.40
2019-02-15T04:18:28.323Z,2.30
2019-02-15T04:21:17.399Z,2.40
2019-02-15T04:24:06.359Z,2.30
2019-02-15T04:26:55.107Z,2.30
2019-02-15T04:29:44.583Z,2.30
2019-02-15T04:32:34.057Z,2.30
2019-02-15T04:35:22.500Z,2.40
2019-02-15T04:38:11.676Z,2.30
2019-02-15T04:41:02.190Z,2.30
2019-02-15T04:43:51.234Z,2.30
2019-02-15T04:46:40.552Z,2.20
2019-02-15T04:49:30.012Z,2.20
2019-02-15T04:52:19.453Z,2.20
2019-02-15T04:55:08.541Z,2.20
2019-02-15T04:57:57.786Z,2.20
2019-02-15T05:00:46.656Z,2.10
2019-02-15T05:03:35.407Z,2.10
2019-02-15T05:06:24.569Z,2.10
2019-02-15T05:09:14.149Z,2.10
2019-02-15T05:12:02.759Z,2.10
2019-02-15T05:14:53.464Z,2.20
2019-02-15T05:17:43.495Z,2.20
2019-02-15T05:20:32.563Z,2.10
2019-02-15T05:23:22.135Z,2.10
2019-02-15T05:26:11.132Z,2.10
2019-02-15T05:29:00.372Z,2.00
2019-02-15T05:31:49.168Z,1.90
2019-02-15T05:34:38.505Z,1.90
2019-02-15T05:37:27.933Z,1.90
2019-02-15T05:40:17.456Z,1.90
2019-02-15T05:43:06.812Z,1.90
2019-02-15T05:45:56.226Z,1.90
2019-02-15T05:48:45.872Z,2.00
2019-02-15T05:51:34.496Z,2.00
2019-02-15T05:54:23.584Z,1.90
2019-02-15T05:57:12.828Z,2.00
2019-02-15T06:00:02.233Z,1.90
2019-02-15T06:02:51.394Z,1.90
2019-02-15T06:05:40.134Z,1.90
2019-02-15T06:08:31.191Z,2.00
2019-02-15T06:11:19.275Z,2.00
2019-02-15T06:14:08.266Z,2.00
2019-02-15T06:16:57.750Z,1.90
2019-02-15T06:19:47.010Z,1.90
2019-02-15T06:22:36.589Z,2.00
2019-02-15T06:25:25.648Z,2.10
2019-02-15T06:28:15.023Z,2.00
2019-02-15T06:31:04.484Z,2.00
2019-02-15T06:33:53.866Z,2.10
2019-02-15T06:36:42.901Z,2.10
2019-02-15T06:39:32.207Z,2.00
2019-02-15T06:42:21.849Z,2.10
2019-02-15T06:45:11.259Z,2.00
2019-02-15T06:48:00.665Z,2.00
2019-02-15T06:50:50.339Z,2.10
2019-02-15T06:53:40.192Z,2.10
2019-02-15T06:56:29.143Z,2.10
2019-02-15T06:59:23.750Z,2.20
2019-02-15T07:02:17.135Z,2.30
2019-02-15T07:05:23.989Z,2.30
2019-02-15T07:08:12.960Z,2.40
2019-02-15T07:11:01.774Z,2.70
2019-02-15T07:13:50.984Z,3.10
2019-02-15T07:16:39.758Z,3.20
2019-02-15T07:19:28.729Z,3.20
2019-02-15T07:22:17.541Z,3.30
2019-02-15T07:25:10.638Z,3.40
2019-02-15T07:28:00.192Z,3.70
2019-02-15T07:30:49.511Z,3.80
2019-02-15T07:33:39.043Z,3.90
2019-02-15T07:36:28.164Z,4.00
2019-02-15T07:39:16.050Z,4.00
2019-02-15T07:42:04.436Z,3.90
2019-02-15T07:44:52.948Z,3.80
2019-02-15T07:47:40.777Z,3.70
2019-02-15T07:50:29.179Z,3.60
2019-02-15T07:53:17.702Z,3.60
2019-02-15T07:56:06.161Z,3.70
2019-02-15T07:58:53.934Z,3.80
2019-02-15T08:01:42.179Z,3.90
2019-02-15T08:04:30.981Z,3.90
2019-02-15T08:07:19.070Z,4.00
2019-02-15T08:10:10.510Z,4.10
2019-02-15T08:12:58.631Z,4.30
2019-02-15T08:15:52.139Z,4.40
2019-02-15T08:18:36.616Z,4.50
2019-02-15T08:21:25.177Z,4.70
2019-02-15T08:24:13.608Z,4.80
2019-02-15T08:27:02.021Z,4.90
2019-02-15T08:29:50.613Z,5.00
2019-02-15T08:32:39.230Z,5.10
2019-02-15T08:35:27.578Z,5.20
2019-02-15T08:38:15.880Z,5.40
2019-02-15T08:41:03.842Z,5.50
2019-02-15T08:43:52.456Z,5.50
2019-02-15T08:46:40.787Z,5.60
2019-02-15T08:49:29.216Z,5.70
2019-02-15T08:52:17.711Z,5.80
2019-02-15T08:55:09.138Z,5.90
2019-02-15T08:57:57.057Z,6.00
2019-02-15T09:00:45.310Z,6.10
2019-02-15T09:03:33.556Z,6.20
2019-02-15T09:06:21.463Z,6.40
2019-02-15T09:09:10.248Z,6.40
2019-02-15T09:11:58.884Z,6.50
2019-02-15T09:14:46.773Z,6.70
2019-02-15T09:17:34.549Z,6.80
2019-02-15T09:20:22.560Z,7.00
2019-02-15T09:23:12.264Z,7.00
2019-02-15T09:26:01.663Z,7.20
2019-02-15T09:28:51.339Z,7.20
2019-02-15T09:31:39.096Z,7.40
2019-02-15T09:34:27.529Z,7.50
2019-02-15T09:37:15.422Z,7.60
2019-02-15T09:40:04.027Z,7.70
2019-02-15T09:42:52.101Z,7.80
2019-02-15T09:45:41.218Z,7.90
2019-02-15T09:48:30.179Z,8.00
2019-02-15T09:51:19.150Z,8.10
2019-02-15T09:54:07.906Z,8.20
2019-02-15T09:56:56.416Z,8.40
2019-02-15T09:59:44.913Z,8.50
2019-02-15T10:02:32.757Z,8.50
2019-02-15T10:05:21.202Z,8.60
2019-02-15T10:08:09.924Z,8.80
2019-02-15T10:10:58.909Z,8.90
2019-02-15T10:13:48.406Z,9.10
2019-02-15T10:16:36.228Z,9.20
2019-02-15T10:19:25.687Z,9.30
2019-02-15T10:22:13.987Z,9.40
2019-02-15T10:25:02.805Z,9.50
2019-02-15T10:27:51.238Z,9.70
2019-02-15T10:30:40.417Z,9.80
2019-02-15T10:33:29.141Z,9.90
2019-02-15T10:36:18.907Z,9.90
2019-02-15T10:39:07.441Z,10.10
2019-02-15T10:41:56.676Z,10.20
2019-02-15T10:44:45.946Z,10.30
2019-02-15T10:47:35.017Z,10.50
2019-02-15T10:50:24.785Z,10.60
2019-02-15T10:53:12.987Z,10.80
2019-02-15T10:56:00.924Z,10.90
2019-02-15T10:58:49.062Z,11.00
2019-02-15T11:01:37.479Z,11.10
2019-02-15T11:04:26.432Z,11.10
2019-02-15T11:07:15.385Z,11.20
2019-02-15T11:10:05.167Z,11.40
2019-02-15T11:12:53.622Z,11.60
2019-02-15T11:15:41.672Z,11.70
2019-02-15T11:18:29.488Z,11.70
2019-02-15T11:21:17.957Z,11.80
2019-02-15T11:24:06.351Z,11.80
2019-02-15T11:26:54.739Z,11.90
2019-02-15T11:29:43.307Z,11.90
2019-02-15T11:32:31.654Z,12.00
2019-02-15T11:35:21.722Z,12.20
2019-02-15T11:38:10.235Z,12.10
2019-02-15T11:40:58.745Z,12.20
2019-02-15T11:43:46.805Z,12.40
2019-02-15T11:46:35.236Z,12.40
2019-02-15T11:49:23.541Z,12.50
2019-02-15T11:52:11.949Z,12.80
2019-02-15T11:55:00.400Z,12.80
2019-02-15T11:57:48.708Z,12.80
2019-02-15T12:00:37.295Z,12.90
2019-02-15T12:03:25.399Z,13.00
2019-02-15T12:06:13.368Z,13.00
2019-02-15T12:09:01.899Z,13.00
2019-02-15T12:11:50.375Z,13.00
2019-02-15T12:14:38.412Z,13.00
2019-02-15T12:17:26.362Z,13.10
2019-02-15T12:20:15.609Z,13.20
2019-02-15T12:23:03.866Z,13.20
2019-02-15T12:25:52.412Z,13.40
2019-02-15T12:28:40.827Z,13.40
2019-02-15T12:31:29.412Z,13.40
2019-02-15T12:34:18.005Z,13.60
2019-02-15T12:37:06.518Z,13.50
2019-02-15T12:39:54.365Z,13.50
2019-02-15T12:42:42.856Z,13.60
2019-02-15T12:45:31.568Z,13.70
2019-02-15T12:48:20.451Z,13.70
2019-02-15T12:51:08.670Z,13.70
2019-02-15T12:53:57.094Z,13.90
2019-02-15T12:56:45.340Z,13.90
2019-02-15T12:59:34.058Z,14.00
2019-02-15T13:02:21.860Z,14.00
2019-02-15T13:05:11.782Z,14.00
2019-02-15T13:08:00.143Z,14.10
2019-02-15T13:10:48.821Z,14.10
2019-02-15T13:13:37.026Z,14.20
2019-02-15T13:16:25.539Z,14.20
2019-02-15T13:19:13.830Z,14.20
2019-02-15T13:22:02.424Z,14.30
2019-02-15T13:24:50.769Z,14.30
2019-02-15T13:27:39.450Z,14.30
2019-02-15T13:30:28.123Z,14.30
2019-02-15T13:33:16.958Z,14.40
2019-02-15T13:36:05.884Z,14.40
2019-02-15T13:38:53.935Z,14.40
2019-02-15T13:41:42.620Z,14.40
2019-02-15T13:44:31.037Z,14.40
2019-02-15T13:47:19.423Z,14.40
2019-02-15T13:50:12.887Z,14.50
2019-02-15T13:53:00.691Z,14.50
2019-02-15T13:55:49.946Z,14.50
2019-02-15T13:58:38.168Z,14.40
2019-02-15T14:01:26.692Z,14.50
2019-02-15T14:04:14.826Z,14.50
2019-02-15T14:07:02.865Z,14.50
2019-02-15T14:09:50.879Z,14.50
2019-02-15T14:12:39.543Z,14.50
2019-02-15T14:15:27.806Z,14.50
2019-02-15T14:18:15.428Z,14.50
2019-02-15T14:21:04.072Z,14.50
2019-02-15T14:23:52.351Z,14.40
2019-02-15T14:26:40.584Z,14.50
2019-02-15T14:29:28.711Z,14.40
2019-02-15T14:32:17.084Z,14.40
2019-02-15T14:35:07.377Z,14.40
2019-02-15T14:37:55.497Z,14.30
2019-02-15T14:40:43.863Z,14.30
2019-02-15T14:43:31.791Z,14.20
2019-02-15T14:46:20.458Z,14.20
2019-02-15T14:49:08.891Z,14.20
2019-02-15T14:51:57.147Z,14.10
2019-02-15T14:54:45.451Z,14.10
2019-02-15T14:57:33.950Z,14.10
2019-02-15T15:00:23.163Z,14.10
2019-02-15T15:03:11.815Z,14.10
2019-02-15T15:06:00.117Z,14.10
2019-02-15T15:08:48.194Z,14.00
2019-02-15T15:11:36.736Z,14.00
2019-02-15T15:14:24.886Z,13.90
2019-02-15T15:17:13.094Z,13.90
2019-02-15T15:20:01.096Z,13.80
2019-02-15T15:22:49.486Z,13.80
2019-02-15T15:25:37.719Z,13.70
2019-02-15T15:28:26.032Z,13.60
2019-02-15T15:31:14.637Z,13.60
2019-02-15T15:34:03.161Z,13.40
2019-02-15T15:36:51.534Z,13.50
2019-02-15T15:39:39.877Z,13.40
2019-02-15T15:42:28.745Z,13.20
2019-02-15T15:45:16.747Z,13.10
2019-02-15T15:48:05.232Z,13.30
2019-02-15T15:50:53.640Z,13.10
2019-02-15T15:53:42.164Z,13.00
2019-02-15T15:56:30.179Z,12.80
2019-02-15T15:59:18.091Z,12.60
2019-02-15T16:02:06.875Z,12.60
2019-02-15T16:04:55.334Z,12.50
2019-02-15T16:07:44.077Z,12.40
2019-02-15T16:10:32.460Z,12.30
2019-02-15T16:13:20.975Z,12.20
2019-02-15T16:16:09.398Z,12.00
2019-02-15T16:18:57.740Z,11.90
2019-02-15T16:21:46.018Z,11.80
2019-02-15T16:24:34.391Z,11.60
2019-02-15T16:27:22.615Z,11.50
2019-02-15T16:30:15.498Z,11.40
2019-02-15T16:33:03.918Z,11.20
2019-02-15T16:35:52.255Z,11.20
2019-02-15T16:38:40.411Z,11.10
2019-02-15T16:41:28.767Z,10.90
2019-02-15T16:44:17.589Z,10.90
2019-02-15T16:47:05.855Z,10.80
2019-02-15T16:49:54.067Z,10.70
2019-02-15T16:52:42.151Z,10.70
2019-02-15T16:55:29.878Z,10.50
2019-02-15T16:58:17.993Z,10.40
2019-02-15T17:01:06.475Z,10.40
2019-02-15T17:03:55.018Z,10.40
2019-02-15T17:06:43.580Z,10.30
2019-02-15T17:09:32.232Z,10.20
2019-02-15T17:12:20.785Z,10.30
2019-02-15T17:15:14.053Z,10.20
2019-02-15T17:18:02.503Z,10.20
2019-02-15T17:20:50.966Z,10.00
2019-02-15T17:23:39.502Z,9.90
2019-02-15T17:26:28.116Z,9.90
2019-02-15T17:29:16.508Z,9.80
2019-02-15T17:32:04.851Z,9.70
2019-02-15T17:34:54.222Z,9.60
2019-02-15T17:37:43.634Z,9.60
2019-02-15T17:40:32.764Z,9.50
2019-02-15T17:43:21.627Z,9.40
2019-02-15T17:46:10.786Z,9.40
2019-02-15T17:49:01.045Z,9.40
2019-02-15T17:51:50.884Z,9.40
2019-02-15T17:54:39.283Z,9.40
2019-02-15T17:57:28.074Z,9.30
2019-02-15T18:00:18.185Z,9.30
2019-02-15T18:03:06.510Z,9.30
2019-02-15T18:05:54.908Z,9.20
2019-02-15T18:08:43.310Z,9.20
2019-02-15T18:11:32.004Z,9.10
2019-02-15T18:14:20.723Z,9.10
2019-02-15T18:17:09.450Z,9.00
2019-02-15T18:19:57.832Z,9.00
2019-02-15T18:22:45.876Z,8.90
2019-02-15T18:25:33.928Z,8.90
2019-02-15T18:28:21.744Z,8.90
2019-02-15T18:31:09.738Z,8.90
2019-02-15T18:33:58.029Z,9.00
2019-02-15T18:36:46.612Z,9.00
2019-02-15T18:39:35.043Z,9.00
2019-02-15T18:42:22.895Z,8.90
2019-02-15T18:45:16.033Z,8.80
2019-02-15T18:48:05.390Z,8.80
2019-02-15T18:50:54.001Z,8.70
2019-02-15T18:53:43.531Z,8.70
2019-02-15T18:56:32.416Z,8.70
2019-02-15T18:59:21.646Z,8.70
2019-02-15T19:02:09.772Z,8.80
2019-02-15T19:04:58.151Z,8.80
2019-02-15T19:07:46.261Z,8.80
2019-02-15T19:10:34.544Z,8.80
2019-02-15T19:13:23.374Z,8.70
2019-02-15T19:16:12.757Z,8.80
2019-02-15T19:19:01.323Z,8.80
2019-02-15T19:21:49.632Z,8.60
2019-02-15T19:24:37.915Z,8.50
2019-02-15T19:27:25.766Z,8.50
2019-02-15T19:30:20.350Z,8.50
2019-02-15T19:33:09.008Z,8.60
2019-02-15T19:35:57.293Z,8.50
2019-02-15T19:38:45.697Z,8.50
2019-02-15T19:41:33.592Z,8.50
2019-02-15T19:44:23.528Z,8.40
2019-02-15T19:47:11.861Z,8.30
2019-02-15T19:49:59.801Z,8.20
2019-02-15T19:52:48.840Z,8.10
2019-02-15T19:55:37.600Z,8.20
2019-02-15T19:58:25.901Z,8.10
2019-02-15T20:01:13.910Z,8.10
2019-02-15T20:04:02.468Z,8.00
2019-02-15T20:06:50.719Z,7.90
2019-02-15T20:09:39.262Z,8.00
2019-02-15T20:12:27.382Z,8.00
2019-02-15T20:15:15.967Z,7.90
2019-02-15T20:18:03.658Z,7.80
2019-02-15T20:20:51.875Z,7.80
2019-02-15T20:23:40.240Z,7.80
2019-02-15T20:26:28.528Z,7.80
2019-02-15T20:29:17.600Z,7.70
2019-02-15T20:32:05.908Z,7.70
2019-02-15T20:34:54.292Z,7.70
2019-02-15T20:37:42.411Z,7.50
2019-02-15T20:40:31.387Z,7.50
2019-02-15T20:43:19.720Z,7.40
2019-02-15T20:46:08.602Z,7.40
2019-02-15T20:49:04.791Z,7.40
2019-02-15T20:51:47.452Z,7.30
2019-02-15T20:54:36.512Z,7.40
2019-02-15T20:57:25.148Z,7.30
2019-02-15T21:00:27.643Z,7.30
2019-02-15T21:03:16.655Z,7.20
2019-02-15T21:06:05.467Z,7.10
2019-02-15T21:08:53.823Z,7.10
2019-02-15T21:11:42.686Z,7.20
2019-02-15T21:14:31.757Z,7.20
2019-02-15T21:17:19.989Z,7.40
2019-02-15T21:20:14.821Z,7.40
2019-02-15T21:23:03.591Z,7.50
2019-02-15T21:25:52.203Z,7.50
2019-02-15T21:28:40.434Z,7.50
2019-02-15T21:31:29.505Z,7.50
2019-02-15T21:34:18.430Z,7.50
2019-02-15T21:37:07.114Z,7.30
2019-02-15T21:39:56.287Z,7.30
2019-02-15T21:42:45.409Z,7.30
2019-02-15T21:45:34.925Z,7.30
2019-02-15T21:48:22.866Z,7.40
2019-02-15T21:51:11.544Z,7.40
2019-02-15T21:53:59.801Z,7.40
2019-02-15T21:56:48.071Z,7.40
2019-02-15T21:59:37.173Z,7.60
2019-02-15T22:02:26.264Z,7.70
2019-02-15T22:05:15.522Z,7.60
2019-02-15T22:08:04.177Z,7.70
2019-02-15T22:10:53.653Z,7.70
2019-02-15T22:13:41.891Z,7.50
2019-02-15T22:16:30.248Z,7.30
2019-02-15T22:19:18.622Z,7.20
2019-02-15T22:22:07.049Z,7.10
2019-02-15T22:24:55.657Z,6.90
2019-02-15T22:27:43.925Z,6.80
2019-02-15T22:30:32.191Z,6.80
2019-02-15T22:33:20.783Z,6.90
2019-02-15T22:36:09.333Z,6.90
2019-02-15T22:38:57.760Z,6.80
2019-02-15T22:41:46.002Z,6.70
2019-02-15T22:44:34.653Z,6.70
2019-02-15T22:47:24.062Z,6.70
2019-02-15T22:50:13.275Z,6.70
2019-02-15T22:53:02.443Z,6.60
2019-02-15T22:55:51.203Z,6.60
2019-02-15T22:58:40.603Z,6.60
2019-02-15T23:01:30.348Z,6.60
2019-02-15T23:04:19.426Z,6.60
2019-02-15T23:07:08.482Z,6.70
2019-02-15T23:09:57.911Z,6.60
2019-02-15T23:12:47.296Z,6.50
2019-02-15T23:15:36.733Z,6.50
2019-02-15T23:18:25.806Z,6.60
2019-02-15T23:21:14.975Z,6.60
2019-02-15T23:24:03.778Z,6.60
2019-02-15T23:26:53.548Z,6.70
2019-02-15T23:29:42.513Z,6.60
2019-02-15T23:32:31.808Z,6.50
2019-02-15T23:35:20.839Z,6.50
2019-02-15T23:38:09.934Z,6.50
2019-02-15T23:40:58.767Z,6.40
2019-02-15T23:43:47.962Z,6.30
2019-02-15T23:46:37.444Z,6.20
2019-02-15T23:49:26.638Z,6.10
2019-02-15T23:52:15.550Z,6.10
2019-02-15T23:55:05.768Z,6.00
2019-02-15T23:57:55.133Z,5.90
